createdAt,value
2019-02-22T00:02:14.328Z,6.60
2019-02-22T00:04:41.608Z,6.50
2019-02-22T00:07:08.936Z,6.40
2019-02-22T00:09:36.261Z,6.60
2019-02-22T00:12:03.555Z,7.00
2019-02-22T00:14:30.878Z,7.10
2019-02-22T00:17:00.413Z,6.90
2019-02-22T00:19:27.752Z,6.70
2019-02-22T00:21:55.112Z,6.40
2019-02-22T00:24:24.573Z,6.10
2019-02-22T00:26:51.821Z,5.90
2019-02-22T00:29:19.140Z,5.70
2019-02-22T00:31:46.370Z,5.60
2019-02-22T00:34:13.697Z,5.50
2019-02-22T00:36:41.003Z,5.40
2019-02-22T00:41:54.167Z,5.50
2019-02-22T00:44:24.980Z,5.40
2019-02-22T00:46:52.244Z,5.30
2019-02-22T00:49:19.484Z,5.30
2019-02-22T00:51:47.068Z,5.20
2019-02-22T00:54:14.634Z,5.10
2019-02-22T00:56:45.151Z,4.90
2019-02-22T00:59:15.970Z,4.90
2019-02-22T01:01:43.291Z,4.90
2019-02-22T01:04:10.608Z,4.90
2019-02-22T01:06:38.152Z,4.90
2019-02-22T01:09:05.711Z,4.80
2019-02-22T01:11:33.276Z,4.60
2019-02-22T01:14:00.507Z,4.60
2019-02-22T01:16:27.736Z,4.60
2019-02-22T01:18:55.232Z,4.70
2019-02-22T01:21:22.457Z,4.70
2019-02-22T01:23:49.684Z,4.80
2019-02-22T01:26:16.909Z,5.00
2019-02-22T01:28:44.137Z,5.00
2019-02-22T01:31:11.348Z,5.10
2019-02-22T01:33:38.593Z,5.20
2019-02-22T01:36:06.099Z,5.30
2019-02-22T01:38:42.052Z,5.40
2019-02-22T01:41:09.196Z,5.50
2019-02-22T01:43:39.509Z,5.60
2019-02-22T01:46:06.633Z,5.70
2019-02-22T01:48:35.888Z,5.70
2019-02-22T01:51:03.126Z,5.70
2019-02-22T01:53:30.464Z,5.70
2019-02-22T01:55:58.035Z,5.70
2019-02-22T01:58:25.602Z,5.70
2019-02-22T02:00:52.914Z,5.80
2019-02-22T02:03:20.183Z,5.80
2019-02-22T02:05:47.416Z,5.90
2019-02-22T02:08:14.705Z,5.90
2019-02-22T02:10:41.928Z,5.90
2019-02-22T02:13:09.172Z,5.90
2019-02-22T02:15:39.230Z,5.90
2019-02-22T02:18:06.507Z,5.90
2019-02-22T02:20:34.057Z,5.90
2019-02-22T02:23:01.299Z,5.90
2019-02-22T02:25:28.528Z,5.90
2019-02-22T02:27:55.784Z,5.90
2019-02-22T02:30:23.007Z,5.80
2019-02-22T02:32:50.321Z,5.80
2019-02-22T02:35:17.871Z,5.90
2019-02-22T02:37:45.465Z,5.90
2019-02-22T02:40:12.766Z,5.80
2019-02-22T02:42:40.323Z,5.90
2019-02-22T02:45:07.659Z,6.00
2019-02-22T02:47:34.876Z,5.90
2019-02-22T02:50:02.392Z,5.90
2019-02-22T02:52:29.847Z,6.00
2019-02-22T02:54:57.088Z,6.00
2019-02-22T02:57:24.312Z,6.00
2019-02-22T02:59:51.551Z,6.20
2019-02-22T03:02:24.641Z,6.30
2019-02-22T03:04:51.906Z,6.30
2019-02-22T03:07:37.862Z,6.30
2019-02-22T03:10:06.540Z,6.30
2019-02-22T03:12:33.962Z,6.20
2019-02-22T03:15:04.729Z,6.30
2019-02-22T03:17:32.672Z,6.30
2019-02-22T03:19:59.928Z,6.20
2019-02-22T03:22:27.164Z,6.20
2019-02-22T03:24:54.843Z,6.30
2019-02-22T03:27:22.069Z,6.30
2019-02-22T03:29:49.655Z,6.30
2019-02-22T03:32:16.881Z,6.30
2019-02-22T03:34:44.457Z,6.30
2019-02-22T03:37:11.679Z,6.30
2019-02-22T03:39:38.905Z,6.40
2019-02-22T03:42:06.414Z,6.40
2019-02-22T03:44:33.737Z,6.40
2019-02-22T03:47:01.234Z,6.40
2019-02-22T03:49:28.790Z,6.40
2019-02-22T03:51:56.377Z,6.30
2019-02-22T03:54:23.615Z,6.40
2019-02-22T03:56:50.845Z,6.40
2019-02-22T03:59:18.069Z,6.50
2019-02-22T04:01:45.293Z,6.50
2019-02-22T04:04:12.532Z,6.50
2019-02-22T04:06:39.749Z,6.40
2019-02-22T04:09:09.947Z,6.50
2019-02-22T04:11:45.794Z,6.50
2019-02-22T04:14:06.389Z,6.70
2019-02-22T04:16:33.618Z,6.60
2019-02-22T04:19:01.131Z,6.60
2019-02-22T04:21:28.362Z,6.50
2019-02-22T04:23:55.672Z,6.50
2019-02-22T04:26:22.943Z,6.50
2019-02-22T04:28:52.966Z,6.60
2019-02-22T04:31:20.227Z,6.70
2019-02-22T04:33:47.456Z,6.60
2019-02-22T04:36:14.697Z,6.80
2019-02-22T04:38:41.929Z,7.00
2019-02-22T04:41:09.243Z,7.00
2019-02-22T04:43:36.469Z,7.00
2019-02-22T04:46:04.096Z,7.00
2019-02-22T04:48:31.638Z,6.90
2019-02-22T04:50:58.868Z,6.80
2019-02-22T04:53:26.102Z,6.90
2019-02-22T04:55:53.800Z,6.80
2019-02-22T04:58:21.402Z,7.10
2019-02-22T05:00:48.725Z,7.30
2019-02-22T05:03:15.945Z,7.30
2019-02-22T05:05:43.173Z,7.10
2019-02-22T05:08:10.713Z,7.00
2019-02-22T05:10:38.024Z,6.90
2019-02-22T05:13:05.243Z,6.80
2019-02-22T05:15:32.588Z,6.80
2019-02-22T05:18:00.092Z,6.90
2019-02-22T05:20:27.321Z,6.90
2019-02-22T05:23:03.438Z,6.80
2019-02-22T05:25:24.108Z,6.80
2019-02-22T05:27:51.325Z,6.80
2019-02-22T05:30:18.573Z,6.80
2019-02-22T05:32:46.066Z,6.90
2019-02-22T05:35:13.719Z,6.90
2019-02-22T05:37:40.961Z,6.90
2019-02-22T05:40:08.269Z,6.90
2019-02-22T05:42:35.585Z,6.90
2019-02-22T05:45:02.923Z,7.00
2019-02-22T05:47:30.165Z,7.00
2019-02-22T05:49:57.480Z,7.10
2019-02-22T05:52:24.772Z,7.00
2019-02-22T05:54:52.066Z,7.00
2019-02-22T05:57:19.606Z,7.00
2019-02-22T05:59:46.841Z,7.20
2019-02-22T06:02:14.733Z,7.20
2019-02-22T06:04:42.334Z,7.10
2019-02-22T06:07:09.669Z,7.00
2019-02-22T06:09:36.888Z,7.00
2019-02-22T06:12:04.165Z,7.00
2019-02-22T06:14:31.695Z,7.00
2019-02-22T06:16:59.295Z,7.00
2019-02-22T06:19:26.430Z,7.00
2019-02-22T06:21:53.979Z,6.90
2019-02-22T06:24:21.202Z,7.00
2019-02-22T06:26:48.444Z,6.90
2019-02-22T06:29:15.787Z,7.00
2019-02-22T06:31:43.128Z,7.00
2019-02-22T06:34:10.356Z,7.00
2019-02-22T06:36:37.597Z,7.00
2019-02-22T06:39:05.392Z,7.10
2019-02-22T06:41:32.644Z,7.30
2019-02-22T06:43:59.917Z,7.30
2019-02-22T06:46:27.160Z,7.20
2019-02-22T06:48:54.759Z,7.10
2019-02-22T06:51:22.032Z,7.00
2019-02-22T06:53:49.256Z,7.00
2019-02-22T06:56:16.502Z,7.00
2019-02-22T06:58:43.858Z,7.00
2019-02-22T07:01:11.438Z,7.00
2019-02-22T07:03:39.210Z,7.00
2019-02-22T07:06:06.544Z,7.10
2019-02-22T07:08:33.792Z,7.10
2019-02-22T07:11:32.682Z,7.20
2019-02-22T07:14:00.245Z,7.30
2019-02-22T07:16:27.492Z,7.40
2019-02-22T07:18:55.110Z,7.30
2019-02-22T07:21:22.412Z,7.30
2019-02-22T07:23:49.724Z,7.20
2019-02-22T07:26:16.979Z,7.30
2019-02-22T07:28:44.471Z,7.40
2019-02-22T07:31:11.756Z,7.30
2019-02-22T07:33:39.285Z,7.30
2019-02-22T07:36:06.501Z,7.40
2019-02-22T07:38:33.734Z,7.40
2019-02-22T07:41:01.266Z,7.40
2019-02-22T07:43:30.088Z,7.40
2019-02-22T07:45:57.348Z,7.40
2019-02-22T07:48:25.196Z,7.40
2019-02-22T07:50:57.622Z,7.40
2019-02-22T07:53:21.847Z,7.40
2019-02-22T07:55:49.080Z,7.40
2019-02-22T07:58:16.388Z,7.40
2019-02-22T08:00:43.925Z,7.50
2019-02-22T08:03:11.172Z,7.50
2019-02-22T08:05:38.396Z,7.50
2019-02-22T08:08:05.545Z,7.40
2019-02-22T08:10:33.075Z,7.50
2019-02-22T08:13:00.345Z,7.50
2019-02-22T08:15:27.581Z,7.60
2019-02-22T08:17:55.239Z,7.70
2019-02-22T08:20:22.895Z,7.90
2019-02-22T08:22:50.580Z,8.10
2019-02-22T08:25:17.900Z,8.30
2019-02-22T08:27:53.008Z,8.50
2019-02-22T08:30:14.191Z,8.30
2019-02-22T08:32:41.593Z,8.20
2019-02-22T08:35:09.179Z,8.10
2019-02-22T08:37:36.515Z,8.10
2019-02-22T08:40:04.355Z,8.20
2019-02-22T08:42:31.980Z,8.30
2019-02-22T08:44:59.548Z,8.40
2019-02-22T08:47:26.819Z,9.20
2019-02-22T08:49:54.035Z,9.40
2019-02-22T08:52:21.625Z,9.60
2019-02-22T08:54:49.247Z,9.70
2019-02-22T08:57:16.492Z,9.60
2019-02-22T08:59:43.721Z,9.70
2019-02-22T09:02:10.963Z,9.80
2019-02-22T09:04:38.569Z,9.80
2019-02-22T09:07:05.798Z,10.00
2019-02-22T09:09:33.682Z,10.10
2019-02-22T09:12:00.992Z,10.00
2019-02-22T09:14:28.248Z,9.80
2019-02-22T09:16:55.735Z,9.60
2019-02-22T09:19:23.301Z,9.60
2019-02-22T09:21:50.853Z,9.40
2019-02-22T09:24:18.071Z,9.60
2019-02-22T09:26:45.299Z,9.70
2019-02-22T09:29:12.836Z,9.70
2019-02-22T09:31:40.140Z,10.00
2019-02-22T09:34:07.626Z,10.10
2019-02-22T09:36:35.183Z,10.10
2019-02-22T09:39:04.490Z,10.20
2019-02-22T09:41:32.048Z,10.40
2019-02-22T09:43:59.332Z,10.40
2019-02-22T09:46:26.967Z,10.90
2019-02-22T09:48:54.313Z,11.60
2019-02-22T09:51:21.548Z,12.00
2019-02-22T09:53:49.149Z,12.10
2019-02-22T09:56:16.792Z,11.70
2019-02-22T09:58:44.449Z,11.60
2019-02-22T10:01:12.007Z,11.40
2019-02-22T10:03:39.256Z,11.40
2019-02-22T10:06:06.480Z,11.40
2019-02-22T10:08:34.105Z,11.70
2019-02-22T10:11:01.396Z,11.60
2019-02-22T10:13:28.664Z,11.50
2019-02-22T10:15:55.885Z,11.30
2019-02-22T10:18:23.238Z,11.30
2019-02-22T10:20:50.736Z,11.10
2019-02-22T10:23:17.988Z,11.10
2019-02-22T10:25:45.216Z,11.20
2019-02-22T10:28:17.822Z,11.50
2019-02-22T10:30:41.612Z,11.70
2019-02-22T10:33:09.560Z,11.50
2019-02-22T10:35:37.224Z,11.60
2019-02-22T10:38:04.781Z,11.60
2019-02-22T10:40:32.009Z,11.80
2019-02-22T10:42:59.589Z,11.90
2019-02-22T10:45:26.813Z,11.70
2019-02-22T10:47:54.133Z,11.80
2019-02-22T10:50:21.777Z,11.90
2019-02-22T10:52:49.313Z,11.90
2019-02-22T10:55:16.890Z,11.60
2019-02-22T10:57:44.427Z,11.40
2019-02-22T11:00:12.524Z,11.30
2019-02-22T11:02:40.085Z,11.40
2019-02-22T11:05:07.615Z,11.50
2019-02-22T11:07:37.088Z,11.60
2019-02-22T11:10:05.291Z,11.90
2019-02-22T11:12:32.851Z,12.20
2019-02-22T11:15:00.323Z,12.30
2019-02-22T11:17:28.059Z,12.50
2019-02-22T11:19:55.942Z,12.50
2019-02-22T11:22:23.169Z,12.50
2019-02-22T11:24:50.492Z,12.40
2019-02-22T11:27:18.104Z,12.10
2019-02-22T11:29:45.346Z,11.80
2019-02-22T11:32:12.564Z,11.80
2019-02-22T11:34:39.808Z,11.70
2019-02-22T11:37:07.051Z,12.00
2019-02-22T11:39:34.668Z,11.90
2019-02-22T11:42:01.899Z,11.80
2019-02-22T11:44:39.654Z,11.80
2019-02-22T11:46:58.815Z,12.00
2019-02-22T11:49:26.284Z,12.10
2019-02-22T11:51:55.917Z,12.20
2019-02-22T11:54:23.001Z,12.00
2019-02-22T11:56:50.563Z,12.10
2019-02-22T11:59:18.115Z,12.70
2019-02-22T12:01:45.328Z,15.20
2019-02-22T12:04:12.588Z,16.70
2019-02-22T12:06:40.585Z,17.00
2019-02-22T12:09:07.844Z,16.90
2019-02-22T12:11:35.155Z,16.90
2019-02-22T12:14:02.383Z,15.50
2019-02-22T12:16:29.900Z,14.60
2019-02-22T12:18:57.482Z,13.80
2019-02-22T12:21:25.020Z,13.40
2019-02-22T12:23:54.142Z,13.20
2019-02-22T12:26:21.785Z,13.00
2019-02-22T12:28:49.465Z,13.20
2019-02-22T12:31:16.682Z,13.40
2019-02-22T12:33:50.461Z,13.40
2019-02-22T12:36:18.144Z,13.20
2019-02-22T12:38:48.591Z,13.00
2019-02-22T12:41:16.585Z,13.10
2019-02-22T12:43:46.706Z,13.10
2019-02-22T12:46:14.324Z,13.40
2019-02-22T12:48:44.322Z,13.90
2019-02-22T12:51:11.909Z,13.60
2019-02-22T12:53:39.476Z,13.00
2019-02-22T12:56:06.832Z,12.70
2019-02-22T12:58:34.194Z,12.80
2019-02-22T13:01:01.437Z,13.40
2019-02-22T13:03:28.799Z,13.70
2019-02-22T13:05:56.335Z,13.30
2019-02-22T13:08:23.675Z,12.80
2019-02-22T13:10:50.929Z,12.70
2019-02-22T13:13:18.161Z,12.90
2019-02-22T13:15:46.032Z,12.80
2019-02-22T13:18:13.392Z,12.60
2019-02-22T13:20:40.628Z,12.60
2019-02-22T13:23:07.872Z,12.60
2019-02-22T13:25:36.408Z,12.60
2019-02-22T13:28:03.631Z,12.70
2019-02-22T13:30:31.209Z,12.70
2019-02-22T13:32:58.553Z,12.60
2019-02-22T13:35:25.799Z,12.70
2019-02-22T13:37:53.381Z,12.80
2019-02-22T13:40:20.605Z,12.90
2019-02-22T13:42:48.213Z,13.00
2019-02-22T13:45:25.980Z,12.90
2019-02-22T13:47:44.691Z,12.80
2019-02-22T13:50:12.963Z,12.70
2019-02-22T13:52:40.315Z,12.60
2019-02-22T13:55:07.829Z,12.50
2019-02-22T13:57:35.054Z,12.40
2019-02-22T14:00:02.297Z,12.30
2019-02-22T14:02:29.872Z,12.30
2019-02-22T14:04:57.444Z,12.30
2019-02-22T14:07:25.007Z,12.50
2019-02-22T14:09:52.600Z,12.50
2019-02-22T14:12:20.127Z,12.40
2019-02-22T14:14:47.349Z,12.30
2019-02-22T14:17:14.829Z,12.30
2019-02-22T14:19:42.085Z,12.40
2019-02-22T14:22:09.646Z,12.60
2019-02-22T14:24:36.903Z,12.70
2019-02-22T14:27:04.459Z,12.80
2019-02-22T14:29:32.533Z,12.70
2019-02-22T14:32:00.083Z,12.60
2019-02-22T14:34:27.640Z,12.50
2019-02-22T14:36:54.990Z,12.40
2019-02-22T14:39:22.573Z,12.40
2019-02-22T14:41:49.797Z,12.50
2019-02-22T14:44:17.148Z,12.40
2019-02-22T14:46:44.733Z,12.40
2019-02-22T14:49:12.106Z,12.50
2019-02-22T14:51:39.328Z,12.50
2019-02-22T14:54:06.988Z,12.40
2019-02-22T14:56:34.223Z,12.20
2019-02-22T14:59:01.796Z,12.10
2019-02-22T15:01:29.024Z,12.10
2019-02-22T15:03:56.920Z,12.00
2019-02-22T15:06:24.172Z,12.00
2019-02-22T15:08:51.400Z,12.00
2019-02-22T15:11:18.621Z,11.90
2019-02-22T15:13:45.846Z,12.00
2019-02-22T15:16:32.620Z,12.20
2019-02-22T15:19:00.193Z,12.10
2019-02-22T15:21:27.852Z,11.90
2019-02-22T15:23:55.103Z,11.70
2019-02-22T15:26:22.971Z,11.80
2019-02-22T15:28:50.553Z,11.80
2019-02-22T15:31:20.747Z,11.80
2019-02-22T15:33:48.178Z,11.80
2019-02-22T15:36:16.285Z,11.70
2019-02-22T15:38:43.951Z,11.60
2019-02-22T15:41:11.176Z,11.70
2019-02-22T15:43:38.445Z,11.50
2019-02-22T15:46:12.280Z,11.40
2019-02-22T15:48:35.197Z,11.30
2019-02-22T15:51:07.267Z,11.20
2019-02-22T15:53:34.126Z,11.10
2019-02-22T15:56:13.801Z,11.10
2019-02-22T15:58:41.068Z,11.00
2019-02-22T16:01:08.297Z,11.00
2019-02-22T16:03:53.761Z,10.90
2019-02-22T16:06:25.904Z,10.90
2019-02-22T16:08:53.220Z,10.90
2019-02-22T16:11:22.560Z,10.90
2019-02-22T16:13:55.656Z,10.80
2019-02-22T16:16:23.632Z,10.90
2019-02-22T16:18:51.372Z,10.80
2019-02-22T16:21:18.601Z,10.70
2019-02-22T16:23:46.184Z,10.70
2019-02-22T16:26:17.898Z,10.70
2019-02-22T16:28:45.505Z,10.60
2019-02-22T16:31:12.733Z,10.60
2019-02-22T16:33:39.967Z,10.50
2019-02-22T16:36:07.192Z,10.50
2019-02-22T16:38:34.709Z,10.50
2019-02-22T16:41:01.960Z,10.40
2019-02-22T16:43:29.520Z,10.40
2019-02-22T16:45:56.797Z,10.40
2019-02-22T16:48:24.336Z,10.30
2019-02-22T16:50:51.924Z,10.30
2019-02-22T16:53:19.236Z,10.30
2019-02-22T16:55:46.497Z,10.20
2019-02-22T16:58:14.055Z,10.20
2019-02-22T17:00:41.617Z,10.10
2019-02-22T17:03:09.176Z,10.00
2019-02-22T17:05:36.530Z,9.90
2019-02-22T17:08:03.664Z,9.90
2019-02-22T17:10:30.931Z,9.90
2019-02-22T17:12:58.153Z,10.00
2019-02-22T17:15:25.755Z,9.90
2019-02-22T17:17:53.396Z,9.80
2019-02-22T17:20:20.628Z,9.90
2019-02-22T17:22:47.951Z,9.80
2019-02-22T17:25:15.224Z,9.60
2019-02-22T17:27:42.456Z,9.60
2019-02-22T17:30:11.495Z,9.50
2019-02-22T17:32:39.065Z,9.40
2019-02-22T17:35:06.312Z,9.30
2019-02-22T17:37:33.548Z,9.20
2019-02-22T17:40:01.128Z,9.10
2019-02-22T17:42:28.684Z,9.00
2019-02-22T17:44:55.903Z,8.90
2019-02-22T17:47:23.499Z,8.80
2019-02-22T17:49:50.718Z,8.80
2019-02-22T17:52:17.952Z,8.60
2019-02-22T17:54:45.175Z,8.40
2019-02-22T17:57:13.344Z,8.20
2019-02-22T17:59:40.879Z,8.20
2019-02-22T18:02:08.125Z,8.20
2019-02-22T18:04:35.356Z,8.10
2019-02-22T18:07:02.599Z,7.90
2019-02-22T18:09:30.091Z,7.80
2019-02-22T18:11:57.316Z,7.70
2019-02-22T18:14:26.156Z,7.70
2019-02-22T18:16:53.688Z,7.60
2019-02-22T18:19:21.248Z,7.60
2019-02-22T18:21:48.483Z,7.50
2019-02-22T18:24:15.888Z,7.50
2019-02-22T18:26:43.624Z,7.40
2019-02-22T18:29:11.184Z,7.40
2019-02-22T18:31:38.963Z,7.30
2019-02-22T18:34:06.318Z,7.20
2019-02-22T18:36:33.564Z,7.00
2019-02-22T18:39:01.117Z,6.90
2019-02-22T18:41:28.680Z,6.90
2019-02-22T18:43:56.331Z,6.90
2019-02-22T18:46:23.605Z,6.80
2019-02-22T18:48:51.249Z,6.70
2019-02-22T18:51:18.903Z,6.50
2019-02-22T18:53:46.465Z,6.40
2019-02-22T18:56:13.792Z,6.50
2019-02-22T18:58:41.136Z,6.40
2019-02-22T19:01:08.735Z,6.30
2019-02-22T19:03:36.289Z,6.20
2019-02-22T19:06:04.263Z,6.00
2019-02-22T19:08:32.581Z,5.90
2019-02-22T19:11:00.044Z,5.90
2019-02-22T19:13:27.549Z,6.00
2019-02-22T19:15:55.533Z,6.00
2019-02-22T19:18:23.184Z,5.80
2019-02-22T19:20:50.405Z,5.70
2019-02-22T19:23:18.321Z,5.60
2019-02-22T19:25:45.543Z,5.60
2019-02-22T19:28:12.772Z,5.60
2019-02-22T19:30:40.001Z,5.50
2019-02-22T19:33:07.832Z,5.60
2019-02-22T19:35:35.142Z,5.40
2019-02-22T19:38:02.732Z,5.30
2019-02-22T19:40:29.959Z,5.10
2019-02-22T19:42:57.539Z,5.00
2019-02-22T19:45:24.807Z,4.90
2019-02-22T19:47:52.044Z,4.80
2019-02-22T19:50:19.608Z,4.90
2019-02-22T19:52:47.165Z,5.00
2019-02-22T19:55:14.436Z,5.10
2019-02-22T19:57:41.994Z,5.10
2019-02-22T20:00:11.632Z,5.10
2019-02-22T20:02:38.863Z,5.00
2019-02-22T20:05:06.495Z,5.00
2019-02-22T20:07:33.728Z,4.90
2019-02-22T20:10:00.962Z,5.00
2019-02-22T20:12:29.226Z,4.90
2019-02-22T20:14:57.041Z,4.70
2019-02-22T20:17:24.272Z,4.60
2019-02-22T20:19:51.852Z,4.50
2019-02-22T20:22:19.131Z,4.50
2019-02-22T20:24:46.353Z,4.50
2019-02-22T20:27:13.918Z,4.50
2019-02-22T20:29:41.468Z,4.60
2019-02-22T20:32:09.027Z,4.60
2019-02-22T20:34:36.255Z,4.50
2019-02-22T20:37:03.652Z,4.50
2019-02-22T20:39:30.968Z,4.50
2019-02-22T20:41:58.566Z,4.40
2019-02-22T20:44:25.781Z,4.40
2019-02-22T20:46:53.355Z,4.40
2019-02-22T20:49:20.584Z,4.40
2019-02-22T20:51:48.069Z,4.40
2019-02-22T20:54:17.173Z,4.40
2019-02-22T20:56:44.470Z,4.30
2019-02-22T20:59:12.106Z,4.20
2019-02-22T21:01:39.321Z,4.10
2019-02-22T21:04:06.741Z,4.10
2019-02-22T21:06:33.955Z,4.10
2019-02-22T21:09:01.229Z,4.00
2019-02-22T21:11:28.557Z,4.00
2019-02-22T21:13:55.817Z,3.90
2019-02-22T21:16:26.338Z,3.70
2019-02-22T21:18:53.879Z,3.70
2019-02-22T21:21:21.540Z,3.70
2019-02-22T21:23:48.809Z,3.80
2019-02-22T21:26:16.072Z,3.80
2019-02-22T21:28:43.710Z,3.80
2019-02-22T21:31:10.932Z,3.70
2019-02-22T21:33:38.488Z,3.70
2019-02-22T21:36:05.709Z,3.70
2019-02-22T21:38:32.968Z,3.70
2019-02-22T21:41:00.629Z,3.60
2019-02-22T21:43:28.235Z,3.60
2019-02-22T21:45:55.465Z,3.60
2019-02-22T21:48:27.639Z,3.50
2019-02-22T21:50:52.243Z,3.50
2019-02-22T21:53:19.516Z,3.40
2019-02-22T21:55:47.063Z,3.40
2019-02-22T21:58:14.336Z,3.40
2019-02-22T22:00:41.553Z,3.50
2019-02-22T22:03:09.152Z,3.50
2019-02-22T22:05:36.702Z,3.60
2019-02-22T22:08:04.243Z,3.50
2019-02-22T22:10:31.801Z,3.60
2019-02-22T22:12:58.986Z,3.40
2019-02-22T22:15:27.661Z,3.40
2019-02-22T22:17:55.296Z,3.30
2019-02-22T22:20:22.858Z,3.40
2019-02-22T22:22:50.160Z,3.30
2019-02-22T22:25:17.384Z,3.20
2019-02-22T22:27:44.918Z,3.20
2019-02-22T22:30:12.574Z,3.20
2019-02-22T22:32:40.139Z,3.20
2019-02-22T22:35:08.971Z,3.10
2019-02-22T22:37:36.196Z,3.00
2019-02-22T22:40:03.940Z,3.10
2019-02-22T22:42:31.495Z,3.00
2019-02-22T22:44:59.057Z,2.90
2019-02-22T22:47:27.619Z,2.90
2019-02-22T22:49:59.296Z,2.80
2019-02-22T22:52:26.520Z,2.80
2019-02-22T22:54:54.110Z,2.80
2019-02-22T22:57:21.334Z,2.80
2019-02-22T22:59:48.664Z,2.80
2019-02-22T23:02:15.884Z,2.80
2019-02-22T23:04:43.147Z,2.80
2019-02-22T23:07:10.463Z,2.70
2019-02-22T23:09:38.024Z,2.60
2019-02-22T23:12:05.504Z,2.70
2019-02-22T23:14:32.835Z,2.80
2019-02-22T23:17:00.103Z,2.80
2019-02-22T23:19:27.653Z,2.70
2019-02-22T23:21:55.208Z,2.80
2019-02-22T23:24:22.875Z,2.80
2019-02-22T23:26:50.096Z,2.70
2019-02-22T23:29:17.335Z,2.60
2019-02-22T23:31:44.572Z,2.40
2019-02-22T23:34:11.852Z,2.30
2019-02-22T23:36:39.436Z,2.30
2019-02-22T23:39:07.917Z,2.30
2019-02-22T23:41:35.138Z,2.30
2019-02-22T23:44:02.937Z,2.30
2019-02-22T23:46:30.494Z,2.40
2019-02-22T23:48:57.737Z,2.50
2019-02-22T23:51:25.304Z,2.40
2019-02-22T23:53:52.521Z,2.40
2019-02-22T23:56:20.116Z,2.50
2019-02-22T23:58:47.335Z,2.40
